sensor_id;sensor_type;location;lat;lon;timestamp;temperature;humidity
55634;DHT22;41504;53.162;6.788;2022-08-01T00:00:33;18.10;91.70
55634;DHT22;41504;53.162;6.788;2022-08-01T00:02:59;18.10;91.70
55634;DHT22;41504;53.162;6.788;2022-08-01T00:05:24;18.00;91.70
55634;DHT22;41504;53.162;6.788;2022-08-01T00:07:50;18.10;91.70
55634;DHT22;41504;53.162;6.788;2022-08-01T00:10:17;18.00;91.70
55634;DHT22;41504;53.162;6.788;2022-08-01T00:12:44;18.00;91.70
55634;DHT22;41504;53.162;6.788;2022-08-01T00:15:15;18.10;91.80
55634;DHT22;41504;53.162;6.788;2022-08-01T00:17:42;18.10;91.70
55634;DHT22;41504;53.162;6.788;2022-08-01T00:20:11;18.10;91.70
55634;DHT22;41504;53.162;6.788;2022-08-01T00:22:37;18.00;91.70
55634;DHT22;41504;53.162;6.788;2022-08-01T00:25:04;18.00;91.70
55634;DHT22;41504;53.162;6.788;2022-08-01T00:27:30;18.00;91.70
55634;DHT22;41504;53.162;6.788;2022-08-01T00:29:57;18.10;91.70
55634;DHT22;41504;53.162;6.788;2022-08-01T00:32:23;18.10;91.70
55634;DHT22;41504;53.162;6.788;2022-08-01T00:34:48;18.10;91.70
55634;DHT22;41504;53.162;6.788;2022-08-01T00:37:14;18.10;91.70
55634;DHT22;41504;53.162;6.788;2022-08-01T00:39:40;18.10;91.60
55634;DHT22;41504;53.162;6.788;2022-08-01T00:42:07;18.10;91.60
55634;DHT22;41504;53.162;6.788;2022-08-01T00:44:33;18.10;91.50
55634;DHT22;41504;53.162;6.788;2022-08-01T00:46:59;18.10;91.50
55634;DHT22;41504;53.162;6.788;2022-08-01T00:49:24;18.10;91.60
55634;DHT22;41504;53.162;6.788;2022-08-01T00:51:50;18.00;91.60
55634;DHT22;41504;53.162;6.788;2022-08-01T00:54:16;18.00;91.70
55634;DHT22;41504;53.162;6.788;2022-08-01T00:56:42;18.00;92.00
55634;DHT22;41504;53.162;6.788;2022-08-01T00:59:09;17.90;91.70
55634;DHT22;41504;53.162;6.788;2022-08-01T01:01:36;18.00;91.70
55634;DHT22;41504;53.162;6.788;2022-08-01T01:04:02;17.90;91.60
55634;DHT22;41504;53.162;6.788;2022-08-01T01:06:31;17.90;91.60
55634;DHT22;41504;53.162;6.788;2022-08-01T01:15:06;17.80;91.60
55634;DHT22;41504;53.162;6.788;2022-08-01T01:20:13;17.70;91.70
55634;DHT22;41504;53.162;6.788;2022-08-01T01:22:50;17.70;91.70
55634;DHT22;41504;53.162;6.788;2022-08-01T01:28:20;17.70;91.80
55634;DHT22;41504;53.162;6.788;2022-08-01T01:30:53;17.70;91.90
55634;DHT22;41504;53.162;6.788;2022-08-01T01:33:21;17.70;91.80
55634;DHT22;41504;53.162;6.788;2022-08-01T01:35:52;17.70;91.90
55634;DHT22;41504;53.162;6.788;2022-08-01T01:38:29;17.70;91.90
55634;DHT22;41504;53.162;6.788;2022-08-01T01:40:57;17.70;91.90
55634;DHT22;41504;53.162;6.788;2022-08-01T01:43:24;17.70;91.80
55634;DHT22;41504;53.162;6.788;2022-08-01T01:45:52;17.70;91.80
55634;DHT22;41504;53.162;6.788;2022-08-01T01:48:20;17.60;91.70
55634;DHT22;41504;53.162;6.788;2022-08-01T01:50:47;17.60;91.60
55634;DHT22;41504;53.162;6.788;2022-08-01T01:53:16;17.60;91.50
55634;DHT22;41504;53.162;6.788;2022-08-01T01:55:45;17.60;91.50
55634;DHT22;41504;53.162;6.788;2022-08-01T01:58:13;17.60;91.40
55634;DHT22;41504;53.162;6.788;2022-08-01T02:00:41;17.50;91.40
55634;DHT22;41504;53.162;6.788;2022-08-01T02:03:09;17.50;91.40
55634;DHT22;41504;53.162;6.788;2022-08-01T02:05:36;17.40;91.40
55634;DHT22;41504;53.162;6.788;2022-08-01T02:08:04;17.40;91.40
55634;DHT22;41504;53.162;6.788;2022-08-01T02:10:32;17.40;91.50
55634;DHT22;41504;53.162;6.788;2022-08-01T02:13:01;17.30;91.40
55634;DHT22;41504;53.162;6.788;2022-08-01T02:15:29;17.30;91.40
55634;DHT22;41504;53.162;6.788;2022-08-01T02:17:56;17.30;91.50
55634;DHT22;41504;53.162;6.788;2022-08-01T02:20:24;17.30;91.50
55634;DHT22;41504;53.162;6.788;2022-08-01T02:23:00;17.20;91.40
55634;DHT22;41504;53.162;6.788;2022-08-01T02:25:39;17.30;91.50
55634;DHT22;41504;53.162;6.788;2022-08-01T02:28:10;17.20;91.40
55634;DHT22;41504;53.162;6.788;2022-08-01T02:30:40;17.30;91.40
55634;DHT22;41504;53.162;6.788;2022-08-01T02:33:19;17.30;91.30
55634;DHT22;41504;53.162;6.788;2022-08-01T02:35:50;17.30;91.20
55634;DHT22;41504;53.162;6.788;2022-08-01T02:38:18;17.30;91.10
55634;DHT22;41504;53.162;6.788;2022-08-01T02:40:47;17.20;91.10
55634;DHT22;41504;53.162;6.788;2022-08-01T02:43:18;17.20;91.20
55634;DHT22;41504;53.162;6.788;2022-08-01T02:45:47;17.30;91.00
55634;DHT22;41504;53.162;6.788;2022-08-01T02:48:16;17.20;91.00
55634;DHT22;41504;53.162;6.788;2022-08-01T02:50:45;17.20;91.00
55634;DHT22;41504;53.162;6.788;2022-08-01T02:53:13;17.20;91.00
55634;DHT22;41504;53.162;6.788;2022-08-01T02:55:41;17.20;91.00
55634;DHT22;41504;53.162;6.788;2022-08-01T02:58:09;17.20;91.00
55634;DHT22;41504;53.162;6.788;2022-08-01T03:00:36;17.10;91.10
55634;DHT22;41504;53.162;6.788;2022-08-01T03:03:05;17.10;91.30
55634;DHT22;41504;53.162;6.788;2022-08-01T03:05:32;17.10;91.20
55634;DHT22;41504;53.162;6.788;2022-08-01T03:08:00;17.10;91.20
55634;DHT22;41504;53.162;6.788;2022-08-01T03:10:28;17.20;91.20
55634;DHT22;41504;53.162;6.788;2022-08-01T03:12:55;17.10;91.20
55634;DHT22;41504;53.162;6.788;2022-08-01T03:15:23;17.10;91.20
55634;DHT22;41504;53.162;6.788;2022-08-01T03:17:51;17.10;91.30
55634;DHT22;41504;53.162;6.788;2022-08-01T03:20:19;17.10;91.30
55634;DHT22;41504;53.162;6.788;2022-08-01T03:22:47;17.10;91.30
55634;DHT22;41504;53.162;6.788;2022-08-01T03:25:15;17.10;91.40
55634;DHT22;41504;53.162;6.788;2022-08-01T03:27:50;17.10;91.40
55634;DHT22;41504;53.162;6.788;2022-08-01T03:30:17;17.00;91.40
55634;DHT22;41504;53.162;6.788;2022-08-01T03:32:43;17.00;91.50
55634;DHT22;41504;53.162;6.788;2022-08-01T03:35:09;17.00;91.50
55634;DHT22;41504;53.162;6.788;2022-08-01T03:37:41;17.00;91.60
55634;DHT22;41504;53.162;6.788;2022-08-01T03:40:24;17.00;91.60
55634;DHT22;41504;53.162;6.788;2022-08-01T03:42:56;17.00;91.40
55634;DHT22;41504;53.162;6.788;2022-08-01T03:45:26;16.90;91.50
55634;DHT22;41504;53.162;6.788;2022-08-01T03:48:03;16.90;91.60
55634;DHT22;41504;53.162;6.788;2022-08-01T03:50:31;16.90;91.50
55634;DHT22;41504;53.162;6.788;2022-08-01T03:53:00;16.80;91.50
55634;DHT22;41504;53.162;6.788;2022-08-01T03:55:28;16.80;91.50
55634;DHT22;41504;53.162;6.788;2022-08-01T03:57:55;16.80;91.50
55634;DHT22;41504;53.162;6.788;2022-08-01T04:00:22;16.80;91.50
55634;DHT22;41504;53.162;6.788;2022-08-01T04:02:48;16.80;91.40
55634;DHT22;41504;53.162;6.788;2022-08-01T04:05:15;16.80;91.50
55634;DHT22;41504;53.162;6.788;2022-08-01T04:07:45;16.80;91.40
55634;DHT22;41504;53.162;6.788;2022-08-01T04:10:12;16.80;91.40
55634;DHT22;41504;53.162;6.788;2022-08-01T04:12:38;16.80;91.50
55634;DHT22;41504;53.162;6.788;2022-08-01T04:15:05;16.70;91.10
55634;DHT22;41504;53.162;6.788;2022-08-01T04:17:31;16.70;91.10
55634;DHT22;41504;53.162;6.788;2022-08-01T04:19:56;16.70;91.10
55634;DHT22;41504;53.162;6.788;2022-08-01T04:22:22;16.70;91.10
55634;DHT22;41504;53.162;6.788;2022-08-01T04:24:50;16.70;91.00
55634;DHT22;41504;53.162;6.788;2022-08-01T04:27:23;16.70;91.00
55634;DHT22;41504;53.162;6.788;2022-08-01T04:29:51;16.70;90.90
55634;DHT22;41504;53.162;6.788;2022-08-01T04:32:21;16.70;90.80
55634;DHT22;41504;53.162;6.788;2022-08-01T04:34:48;16.70;90.70
55634;DHT22;41504;53.162;6.788;2022-08-01T04:37:15;16.70;90.80
55634;DHT22;41504;53.162;6.788;2022-08-01T04:39:43;16.60;90.60
55634;DHT22;41504;53.162;6.788;2022-08-01T04:42:10;16.60;90.60
55634;DHT22;41504;53.162;6.788;2022-08-01T04:44:37;16.60;90.70
55634;DHT22;41504;53.162;6.788;2022-08-01T04:47:03;16.60;90.50
55634;DHT22;41504;53.162;6.788;2022-08-01T04:49:34;16.60;90.30
55634;DHT22;41504;53.162;6.788;2022-08-01T04:52:00;16.60;90.00
55634;DHT22;41504;53.162;6.788;2022-08-01T04:54:27;16.60;90.00
55634;DHT22;41504;53.162;6.788;2022-08-01T04:56:54;16.50;89.80
55634;DHT22;41504;53.162;6.788;2022-08-01T04:59:29;16.50;90.00
55634;DHT22;41504;53.162;6.788;2022-08-01T05:04:33;16.40;89.80
55634;DHT22;41504;53.162;6.788;2022-08-01T05:06:59;16.40;89.80
55634;DHT22;41504;53.162;6.788;2022-08-01T05:09:26;16.40;89.70
55634;DHT22;41504;53.162;6.788;2022-08-01T05:11:51;16.40;89.50
55634;DHT22;41504;53.162;6.788;2022-08-01T05:14:17;16.40;89.50
55634;DHT22;41504;53.162;6.788;2022-08-01T05:16:44;16.40;89.00
55634;DHT22;41504;53.162;6.788;2022-08-01T05:19:11;16.40;89.20
55634;DHT22;41504;53.162;6.788;2022-08-01T05:21:37;16.40;89.30
55634;DHT22;41504;53.162;6.788;2022-08-01T05:24:04;16.50;89.40
55634;DHT22;41504;53.162;6.788;2022-08-01T05:26:30;16.50;89.30
55634;DHT22;41504;53.162;6.788;2022-08-01T05:28:55;16.60;89.20
55634;DHT22;41504;53.162;6.788;2022-08-01T05:31:21;16.60;89.00
55634;DHT22;41504;53.162;6.788;2022-08-01T05:33:47;16.60;88.60
55634;DHT22;41504;53.162;6.788;2022-08-01T05:36:12;16.60;88.30
55634;DHT22;41504;53.162;6.788;2022-08-01T05:38:39;16.70;88.10
55634;DHT22;41504;53.162;6.788;2022-08-01T05:41:05;16.60;88.10
55634;DHT22;41504;53.162;6.788;2022-08-01T05:43:30;16.60;88.10
55634;DHT22;41504;53.162;6.788;2022-08-01T05:45:56;16.60;88.00
55634;DHT22;41504;53.162;6.788;2022-08-01T05:48:23;16.60;87.80
55634;DHT22;41504;53.162;6.788;2022-08-01T05:50:49;16.60;87.80
55634;DHT22;41504;53.162;6.788;2022-08-01T05:53:16;16.60;88.40
55634;DHT22;41504;53.162;6.788;2022-08-01T05:55:41;16.60;87.80
55634;DHT22;41504;53.162;6.788;2022-08-01T05:58:07;16.70;87.60
55634;DHT22;41504;53.162;6.788;2022-08-01T06:00:33;16.70;87.70
55634;DHT22;41504;53.162;6.788;2022-08-01T06:02:58;16.70;87.80
55634;DHT22;41504;53.162;6.788;2022-08-01T06:05:24;16.70;87.20
55634;DHT22;41504;53.162;6.788;2022-08-01T06:07:50;16.70;87.40
55634;DHT22;41504;53.162;6.788;2022-08-01T06:10:15;16.80;86.90
55634;DHT22;41504;53.162;6.788;2022-08-01T06:12:41;16.80;87.00
55634;DHT22;41504;53.162;6.788;2022-08-01T06:15:08;16.80;87.20
55634;DHT22;41504;53.162;6.788;2022-08-01T06:17:34;16.80;87.30
55634;DHT22;41504;53.162;6.788;2022-08-01T06:19:59;16.90;87.50
55634;DHT22;41504;53.162;6.788;2022-08-01T06:22:25;16.90;86.60
55634;DHT22;41504;53.162;6.788;2022-08-01T06:24:51;16.90;86.20
55634;DHT22;41504;53.162;6.788;2022-08-01T06:27:17;16.90;86.50
55634;DHT22;41504;53.162;6.788;2022-08-01T06:29:43;16.90;86.30
55634;DHT22;41504;53.162;6.788;2022-08-01T06:32:09;16.90;86.60
55634;DHT22;41504;53.162;6.788;2022-08-01T06:34:35;16.90;86.80
55634;DHT22;41504;53.162;6.788;2022-08-01T06:37:01;17.00;86.50
55634;DHT22;41504;53.162;6.788;2022-08-01T06:39:27;17.00;86.30
55634;DHT22;41504;53.162;6.788;2022-08-01T06:41:52;17.00;87.00
55634;DHT22;41504;53.162;6.788;2022-08-01T06:44:18;17.00;86.60
55634;DHT22;41504;53.162;6.788;2022-08-01T06:46:44;17.00;86.40
55634;DHT22;41504;53.162;6.788;2022-08-01T06:49:10;17.10;86.30
55634;DHT22;41504;53.162;6.788;2022-08-01T06:51:36;17.10;86.10
55634;DHT22;41504;53.162;6.788;2022-08-01T06:54:01;17.10;86.10
55634;DHT22;41504;53.162;6.788;2022-08-01T06:56:27;17.10;85.80
55634;DHT22;41504;53.162;6.788;2022-08-01T06:58:53;17.00;85.70
55634;DHT22;41504;53.162;6.788;2022-08-01T07:01:21;17.00;86.00
55634;DHT22;41504;53.162;6.788;2022-08-01T07:03:47;17.10;86.10
55634;DHT22;41504;53.162;6.788;2022-08-01T07:06:13;17.10;85.80
55634;DHT22;41504;53.162;6.788;2022-08-01T07:08:40;17.10;85.70
55634;DHT22;41504;53.162;6.788;2022-08-01T07:11:06;17.10;85.50
55634;DHT22;41504;53.162;6.788;2022-08-01T07:13:31;17.10;85.10
55634;DHT22;41504;53.162;6.788;2022-08-01T07:15:58;17.10;85.00
55634;DHT22;41504;53.162;6.788;2022-08-01T07:18:23;17.20;84.90
55634;DHT22;41504;53.162;6.788;2022-08-01T07:20:49;17.20;84.20
55634;DHT22;41504;53.162;6.788;2022-08-01T07:23:16;17.20;84.40
55634;DHT22;41504;53.162;6.788;2022-08-01T07:25:42;17.20;84.10
55634;DHT22;41504;53.162;6.788;2022-08-01T07:28:08;17.30;83.20
55634;DHT22;41504;53.162;6.788;2022-08-01T07:30:34;17.20;83.40
55634;DHT22;41504;53.162;6.788;2022-08-01T07:33:00;17.30;83.20
55634;DHT22;41504;53.162;6.788;2022-08-01T07:35:26;17.40;83.30
55634;DHT22;41504;53.162;6.788;2022-08-01T07:37:52;17.40;82.50
55634;DHT22;41504;53.162;6.788;2022-08-01T07:40:19;17.50;82.30
55634;DHT22;41504;53.162;6.788;2022-08-01T07:42:46;17.50;82.00
55634;DHT22;41504;53.162;6.788;2022-08-01T07:45:12;17.60;81.70
55634;DHT22;41504;53.162;6.788;2022-08-01T07:47:38;17.60;81.70
55634;DHT22;41504;53.162;6.788;2022-08-01T07:50:05;17.70;80.70
55634;DHT22;41504;53.162;6.788;2022-08-01T07:52:31;17.70;81.10
55634;DHT22;41504;53.162;6.788;2022-08-01T07:54:57;17.70;80.70
55634;DHT22;41504;53.162;6.788;2022-08-01T07:57:24;17.80;80.10
55634;DHT22;41504;53.162;6.788;2022-08-01T07:59:51;17.80;80.00
55634;DHT22;41504;53.162;6.788;2022-08-01T08:02:16;17.90;80.20
55634;DHT22;41504;53.162;6.788;2022-08-01T08:04:42;17.90;79.10
55634;DHT22;41504;53.162;6.788;2022-08-01T08:07:08;17.90;78.20
55634;DHT22;41504;53.162;6.788;2022-08-01T08:09:34;17.80;79.10
55634;DHT22;41504;53.162;6.788;2022-08-01T08:12:09;17.90;78.70
55634;DHT22;41504;53.162;6.788;2022-08-01T08:14:35;17.90;77.40
55634;DHT22;41504;53.162;6.788;2022-08-01T08:17:00;17.90;78.20
55634;DHT22;41504;53.162;6.788;2022-08-01T08:19:26;17.90;78.70
55634;DHT22;41504;53.162;6.788;2022-08-01T08:21:52;18.10;78.70
55634;DHT22;41504;53.162;6.788;2022-08-01T08:24:17;18.20;78.00
55634;DHT22;41504;53.162;6.788;2022-08-01T08:26:53;18.30;77.70
55634;DHT22;41504;53.162;6.788;2022-08-01T08:29:20;18.50;77.80
55634;DHT22;41504;53.162;6.788;2022-08-01T08:31:45;18.60;77.20
55634;DHT22;41504;53.162;6.788;2022-08-01T08:34:12;18.80;76.30
55634;DHT22;41504;53.162;6.788;2022-08-01T08:36:38;18.80;75.40
55634;DHT22;41504;53.162;6.788;2022-08-01T08:39:07;18.70;75.00
55634;DHT22;41504;53.162;6.788;2022-08-01T08:41:34;18.80;75.60
55634;DHT22;41504;53.162;6.788;2022-08-01T08:44:04;18.80;75.70
55634;DHT22;41504;53.162;6.788;2022-08-01T08:46:31;19.00;73.70
55634;DHT22;41504;53.162;6.788;2022-08-01T08:48:59;18.90;73.30
55634;DHT22;41504;53.162;6.788;2022-08-01T08:51:33;18.90;74.40
55634;DHT22;41504;53.162;6.788;2022-08-01T08:54:00;18.90;73.60
55634;DHT22;41504;53.162;6.788;2022-08-01T08:56:31;18.90;74.30
55634;DHT22;41504;53.162;6.788;2022-08-01T08:59:00;19.00;74.30
55634;DHT22;41504;53.162;6.788;2022-08-01T09:01:26;19.00;74.60
55634;DHT22;41504;53.162;6.788;2022-08-01T09:03:55;19.20;73.70
55634;DHT22;41504;53.162;6.788;2022-08-01T09:06:21;19.30;73.40
55634;DHT22;41504;53.162;6.788;2022-08-01T09:08:47;19.30;72.50
55634;DHT22;41504;53.162;6.788;2022-08-01T09:11:13;19.30;72.30
55634;DHT22;41504;53.162;6.788;2022-08-01T09:13:38;19.30;72.80
55634;DHT22;41504;53.162;6.788;2022-08-01T09:16:05;19.20;72.80
55634;DHT22;41504;53.162;6.788;2022-08-01T09:18:38;19.30;72.80
55634;DHT22;41504;53.162;6.788;2022-08-01T09:21:16;19.30;69.70
55634;DHT22;41504;53.162;6.788;2022-08-01T09:23:51;19.20;72.20
55634;DHT22;41504;53.162;6.788;2022-08-01T09:26:47;19.30;72.60
55634;DHT22;41504;53.162;6.788;2022-08-01T09:29:19;19.50;70.10
55634;DHT22;41504;53.162;6.788;2022-08-01T09:31:46;19.50;70.50
55634;DHT22;41504;53.162;6.788;2022-08-01T09:34:12;19.40;70.50
55634;DHT22;41504;53.162;6.788;2022-08-01T09:36:51;19.40;69.20
55634;DHT22;41504;53.162;6.788;2022-08-01T09:39:22;19.30;69.20
55634;DHT22;41504;53.162;6.788;2022-08-01T09:41:48;19.20;69.10
55634;DHT22;41504;53.162;6.788;2022-08-01T09:44:14;19.20;69.00
55634;DHT22;41504;53.162;6.788;2022-08-01T09:46:54;19.20;69.60
55634;DHT22;41504;53.162;6.788;2022-08-01T09:49:36;19.10;68.30
55634;DHT22;41504;53.162;6.788;2022-08-01T09:52:17;19.00;68.70
55634;DHT22;41504;53.162;6.788;2022-08-01T09:54:51;19.00;70.50
55634;DHT22;41504;53.162;6.788;2022-08-01T09:57:18;19.10;69.30
55634;DHT22;41504;53.162;6.788;2022-08-01T09:59:51;19.10;68.00
55634;DHT22;41504;53.162;6.788;2022-08-01T10:02:28;19.00;67.90
55634;DHT22;41504;53.162;6.788;2022-08-01T10:04:54;18.90;68.80
55634;DHT22;41504;53.162;6.788;2022-08-01T10:07:21;19.00;69.10
55634;DHT22;41504;53.162;6.788;2022-08-01T10:09:48;19.00;69.20
55634;DHT22;41504;53.162;6.788;2022-08-01T10:12:19;19.00;68.40
55634;DHT22;41504;53.162;6.788;2022-08-01T10:14:48;19.00;68.20
55634;DHT22;41504;53.162;6.788;2022-08-01T10:17:24;19.10;67.80
55634;DHT22;41504;53.162;6.788;2022-08-01T10:19:50;19.20;65.80
55634;DHT22;41504;53.162;6.788;2022-08-01T10:22:23;19.30;66.70
55634;DHT22;41504;53.162;6.788;2022-08-01T10:24:50;19.40;66.80
55634;DHT22;41504;53.162;6.788;2022-08-01T10:27:19;19.60;65.90
55634;DHT22;41504;53.162;6.788;2022-08-01T10:29:55;19.70;64.90
55634;DHT22;41504;53.162;6.788;2022-08-01T10:32:23;19.50;65.20
55634;DHT22;41504;53.162;6.788;2022-08-01T10:34:52;19.50;65.70
55634;DHT22;41504;53.162;6.788;2022-08-01T10:37:20;19.50;65.80
55634;DHT22;41504;53.162;6.788;2022-08-01T10:39:46;19.60;66.00
55634;DHT22;41504;53.162;6.788;2022-08-01T10:42:12;19.70;65.60
55634;DHT22;41504;53.162;6.788;2022-08-01T10:44:39;19.70;64.70
55634;DHT22;41504;53.162;6.788;2022-08-01T10:47:11;19.60;64.40
55634;DHT22;41504;53.162;6.788;2022-08-01T10:49:47;19.50;64.20
55634;DHT22;41504;53.162;6.788;2022-08-01T10:52:20;19.30;65.40
55634;DHT22;41504;53.162;6.788;2022-08-01T10:54:46;19.40;63.30
55634;DHT22;41504;53.162;6.788;2022-08-01T10:57:12;19.50;64.00
55634;DHT22;41504;53.162;6.788;2022-08-01T10:59:49;19.60;64.50
55634;DHT22;41504;53.162;6.788;2022-08-01T11:02:27;19.70;63.10
55634;DHT22;41504;53.162;6.788;2022-08-01T11:05:20;19.70;62.80
55634;DHT22;41504;53.162;6.788;2022-08-01T11:07:51;19.60;61.90
55634;DHT22;41504;53.162;6.788;2022-08-01T11:10:25;19.60;63.10
55634;DHT22;41504;53.162;6.788;2022-08-01T11:12:55;19.60;63.50
55634;DHT22;41504;53.162;6.788;2022-08-01T11:15:22;19.70;63.50
55634;DHT22;41504;53.162;6.788;2022-08-01T11:17:55;19.80;61.90
55634;DHT22;41504;53.162;6.788;2022-08-01T11:20:34;19.70;61.80
55634;DHT22;41504;53.162;6.788;2022-08-01T11:30:46;19.60;62.70
55634;DHT22;41504;53.162;6.788;2022-08-01T11:33:13;19.70;62.90
55634;DHT22;41504;53.162;6.788;2022-08-01T11:41:24;19.90;59.20
55634;DHT22;41504;53.162;6.788;2022-08-01T11:44:01;19.80;60.60
55634;DHT22;41504;53.162;6.788;2022-08-01T11:57:09;19.80;58.40
55634;DHT22;41504;53.162;6.788;2022-08-01T11:59:41;19.80;58.60
55634;DHT22;41504;53.162;6.788;2022-08-01T12:02:28;19.70;58.60
55634;DHT22;41504;53.162;6.788;2022-08-01T12:05:11;19.70;58.80
55634;DHT22;41504;53.162;6.788;2022-08-01T12:07:38;19.90;59.70
55634;DHT22;41504;53.162;6.788;2022-08-01T12:10:15;20.10;59.50
55634;DHT22;41504;53.162;6.788;2022-08-01T12:12:52;20.20;57.60
55634;DHT22;41504;53.162;6.788;2022-08-01T12:15:21;20.30;55.60
55634;DHT22;41504;53.162;6.788;2022-08-01T12:18:06;20.40;56.60
55634;DHT22;41504;53.162;6.788;2022-08-01T12:20:37;20.30;53.90
55634;DHT22;41504;53.162;6.788;2022-08-01T12:23:15;20.20;57.20
55634;DHT22;41504;53.162;6.788;2022-08-01T12:25:41;20.30;58.10
55634;DHT22;41504;53.162;6.788;2022-08-01T12:28:13;20.50;57.80
55634;DHT22;41504;53.162;6.788;2022-08-01T12:30:40;20.50;57.50
55634;DHT22;41504;53.162;6.788;2022-08-01T12:33:08;20.60;56.50
55634;DHT22;41504;53.162;6.788;2022-08-01T12:35:36;20.60;55.40
55634;DHT22;41504;53.162;6.788;2022-08-01T12:38:22;20.40;54.30
55634;DHT22;41504;53.162;6.788;2022-08-01T12:40:53;20.20;54.90
55634;DHT22;41504;53.162;6.788;2022-08-01T12:43:22;20.10;57.20
55634;DHT22;41504;53.162;6.788;2022-08-01T12:45:50;20.30;55.20
55634;DHT22;41504;53.162;6.788;2022-08-01T12:48:17;20.30;55.20
55634;DHT22;41504;53.162;6.788;2022-08-01T12:50:50;20.30;55.20
55634;DHT22;41504;53.162;6.788;2022-08-01T12:53:17;20.40;55.50
55634;DHT22;41504;53.162;6.788;2022-08-01T12:55:50;20.50;54.20
55634;DHT22;41504;53.162;6.788;2022-08-01T12:58:17;20.60;55.60
55634;DHT22;41504;53.162;6.788;2022-08-01T13:00:45;20.80;54.50
55634;DHT22;41504;53.162;6.788;2022-08-01T13:03:17;20.90;55.10
55634;DHT22;41504;53.162;6.788;2022-08-01T13:05:49;20.90;52.70
55634;DHT22;41504;53.162;6.788;2022-08-01T13:11:08;20.80;52.20
55634;DHT22;41504;53.162;6.788;2022-08-01T13:13:48;20.70;52.30
55634;DHT22;41504;53.162;6.788;2022-08-01T13:16:23;20.70;53.10
55634;DHT22;41504;53.162;6.788;2022-08-01T13:18:53;20.80;52.90
55634;DHT22;41504;53.162;6.788;2022-08-01T13:21:22;20.90;53.10
55634;DHT22;41504;53.162;6.788;2022-08-01T13:24:07;20.90;52.00
55634;DHT22;41504;53.162;6.788;2022-08-01T13:29:13;20.80;51.30
55634;DHT22;41504;53.162;6.788;2022-08-01T13:31:40;20.70;53.50
55634;DHT22;41504;53.162;6.788;2022-08-01T13:34:06;20.90;53.80
55634;DHT22;41504;53.162;6.788;2022-08-01T13:36:32;21.10;52.90
55634;DHT22;41504;53.162;6.788;2022-08-01T13:38:58;21.30;51.20
55634;DHT22;41504;53.162;6.788;2022-08-01T13:41:43;21.40;50.30
55634;DHT22;41504;53.162;6.788;2022-08-01T13:44:10;21.30;51.00
55634;DHT22;41504;53.162;6.788;2022-08-01T13:46:40;21.30;50.50
55634;DHT22;41504;53.162;6.788;2022-08-01T13:49:07;21.40;51.20
55634;DHT22;41504;53.162;6.788;2022-08-01T13:51:33;21.60;51.40
55634;DHT22;41504;53.162;6.788;2022-08-01T13:53:59;21.60;50.80
55634;DHT22;41504;53.162;6.788;2022-08-01T13:56:25;21.60;52.50
55634;DHT22;41504;53.162;6.788;2022-08-01T13:58:56;21.70;51.90
55634;DHT22;41504;53.162;6.788;2022-08-01T14:01:23;21.90;50.50
55634;DHT22;41504;53.162;6.788;2022-08-01T14:03:50;21.80;52.10
55634;DHT22;41504;53.162;6.788;2022-08-01T14:06:17;22.00;52.20
55634;DHT22;41504;53.162;6.788;2022-08-01T14:08:44;22.30;52.10
55634;DHT22;41504;53.162;6.788;2022-08-01T14:11:10;22.50;51.90
55634;DHT22;41504;53.162;6.788;2022-08-01T14:13:36;22.40;50.60
55634;DHT22;41504;53.162;6.788;2022-08-01T14:16:06;22.20;49.70
55634;DHT22;41504;53.162;6.788;2022-08-01T14:18:32;22.00;50.60
55634;DHT22;41504;53.162;6.788;2022-08-01T14:21:07;21.80;51.00
55634;DHT22;41504;53.162;6.788;2022-08-01T14:23:32;21.70;50.60
55634;DHT22;41504;53.162;6.788;2022-08-01T14:25:58;21.70;51.20
55634;DHT22;41504;53.162;6.788;2022-08-01T14:28:24;21.60;51.30
55634;DHT22;41504;53.162;6.788;2022-08-01T14:30:52;21.60;51.20
55634;DHT22;41504;53.162;6.788;2022-08-01T14:33:18;21.60;52.20
55634;DHT22;41504;53.162;6.788;2022-08-01T14:35:44;21.70;52.40
55634;DHT22;41504;53.162;6.788;2022-08-01T14:38:09;21.90;52.50
55634;DHT22;41504;53.162;6.788;2022-08-01T14:40:35;22.00;52.00
55634;DHT22;41504;53.162;6.788;2022-08-01T14:43:01;22.00;50.40
55634;DHT22;41504;53.162;6.788;2022-08-01T14:45:27;21.70;51.70
55634;DHT22;41504;53.162;6.788;2022-08-01T14:47:53;21.60;52.60
55634;DHT22;41504;53.162;6.788;2022-08-01T14:50:19;21.50;52.00
55634;DHT22;41504;53.162;6.788;2022-08-01T14:52:45;21.50;52.90
55634;DHT22;41504;53.162;6.788;2022-08-01T14:55:11;21.50;51.70
55634;DHT22;41504;53.162;6.788;2022-08-01T14:57:39;21.40;52.60
55634;DHT22;41504;53.162;6.788;2022-08-01T15:00:07;21.50;50.80
55634;DHT22;41504;53.162;6.788;2022-08-01T15:02:35;21.50;50.70
55634;DHT22;41504;53.162;6.788;2022-08-01T15:05:01;21.30;51.00
55634;DHT22;41504;53.162;6.788;2022-08-01T15:07:30;21.20;51.50
55634;DHT22;41504;53.162;6.788;2022-08-01T15:09:56;21.10;51.60
55634;DHT22;41504;53.162;6.788;2022-08-01T15:12:22;21.30;52.00
55634;DHT22;41504;53.162;6.788;2022-08-01T15:14:48;21.50;51.20
55634;DHT22;41504;53.162;6.788;2022-08-01T15:17:15;21.60;51.40
55634;DHT22;41504;53.162;6.788;2022-08-01T15:19:40;21.70;50.80
55634;DHT22;41504;53.162;6.788;2022-08-01T15:22:06;21.70;50.10
55634;DHT22;41504;53.162;6.788;2022-08-01T15:24:32;21.70;50.20
55634;DHT22;41504;53.162;6.788;2022-08-01T15:26:58;21.70;51.20
55634;DHT22;41504;53.162;6.788;2022-08-01T15:29:24;21.90;51.30
55634;DHT22;41504;53.162;6.788;2022-08-01T15:31:50;22.10;51.60
55634;DHT22;41504;53.162;6.788;2022-08-01T15:34:15;22.20;49.90
55634;DHT22;41504;53.162;6.788;2022-08-01T15:36:42;22.10;50.40
55634;DHT22;41504;53.162;6.788;2022-08-01T15:39:09;22.10;50.90
55634;DHT22;41504;53.162;6.788;2022-08-01T15:41:35;22.10;49.60
55634;DHT22;41504;53.162;6.788;2022-08-01T15:44:04;22.00;50.70
55634;DHT22;41504;53.162;6.788;2022-08-01T15:46:30;22.00;50.00
55634;DHT22;41504;53.162;6.788;2022-08-01T15:48:55;22.00;49.90
55634;DHT22;41504;53.162;6.788;2022-08-01T15:51:21;22.00;49.50
55634;DHT22;41504;53.162;6.788;2022-08-01T15:53:47;21.90;49.90
55634;DHT22;41504;53.162;6.788;2022-08-01T15:56:13;21.70;50.90
55634;DHT22;41504;53.162;6.788;2022-08-01T15:58:39;21.70;51.50
55634;DHT22;41504;53.162;6.788;2022-08-01T16:01:05;21.70;51.00
55634;DHT22;41504;53.162;6.788;2022-08-01T16:03:31;21.70;51.60
55634;DHT22;41504;53.162;6.788;2022-08-01T16:05:57;21.70;51.30
55634;DHT22;41504;53.162;6.788;2022-08-01T16:08:22;21.70;51.30
55634;DHT22;41504;53.162;6.788;2022-08-01T16:10:57;21.70;50.80
55634;DHT22;41504;53.162;6.788;2022-08-01T16:13:23;21.60;51.20
55634;DHT22;41504;53.162;6.788;2022-08-01T16:15:48;21.50;51.00
55634;DHT22;41504;53.162;6.788;2022-08-01T16:18:14;21.40;51.60
55634;DHT22;41504;53.162;6.788;2022-08-01T16:20:41;21.40;51.60